Time;durP1;ratioP1;P1;durP2;ratioP2;P2;SDS_P1;SDS_P2;PMS_P1;PMS_P2;Temp;Humidity;BMP_temperature;BMP_pressure;BME280_temperature;BME280_humidity;BME280_pressure;Samples;Min_cycle;Max_cycle;Signal;HPM_P1;HPM_P2
2023/03/27 00:00:12;;;;;;;11.50;10.63;;;;;;;7.58;64.34;91814.13;5068674;28;20229;-69
2023/03/27 00:02:37;;;;;;;15.90;14.03;;;;;;;7.53;61.44;91816.03;5068285;28;20213;-71
2023/03/27 00:05:04;;;;;;;16.03;14.33;;;;;;;7.81;59.90;91810.72;5071777;28;20280;-71
2023/03/27 00:07:29;;;;;;;14.30;12.90;;;;;;;7.81;63.03;91795.13;5070430;28;20181;-71
2023/03/27 00:09:56;;;;;;;13.27;11.07;;;;;;;7.76;61.57;91805.59;5071649;28;20220;-71
2023/03/27 00:12:22;;;;;;;13.10;11.90;;;;;;;7.66;60.85;91795.34;5073153;28;20201;-71
2023/03/27 00:14:47;;;;;;;13.43;12.23;;;;;;;7.68;62.18;91806.22;5072025;28;20366;-70
2023/03/27 00:17:12;;;;;;;15.33;13.83;;;;;;;7.60;60.82;91799.06;5072570;28;20241;-71
2023/03/27 00:19:38;;;;;;;14.43;12.43;;;;;;;7.70;58.83;91775.56;5072298;28;20262;-71
2023/03/27 00:22:04;;;;;;;13.20;11.87;;;;;;;7.78;60.89;91787.13;5073091;28;20208;-70
2023/03/27 00:24:30;;;;;;;12.60;11.47;;;;;;;7.69;61.86;91789.56;5071392;28;20235;-71
2023/03/27 00:26:55;;;;;;;12.67;11.70;;;;;;;7.78;57.33;91787.88;5072006;28;20188;-71
2023/03/27 00:29:20;;;;;;;13.33;11.97;;;;;;;7.87;57.48;91791.41;5071104;28;20207;-71
2023/03/27 00:31:46;;;;;;;11.40;10.50;;;;;;;8.10;54.78;91781.97;5071942;28;20193;-71
2023/03/27 00:34:11;;;;;;;11.70;10.50;;;;;;;8.18;58.90;91799.53;5069721;28;20189;-71
2023/03/27 00:36:37;;;;;;;11.80;10.67;;;;;;;7.94;55.98;91794.41;5070677;28;20249;-70
2023/03/27 00:39:03;;;;;;;10.80;10.00;;;;;;;8.27;55.46;91799.69;5072133;28;20200;-70
2023/03/27 00:41:29;;;;;;;13.23;11.17;;;;;;;8.22;58.24;91792.69;5071730;28;20229;-71
2023/03/27 00:43:57;;;;;;;10.20;9.40;;;;;;;8.17;58.59;91790.97;5072135;28;20209;-70
2023/03/27 00:46:43;;;;;;;10.97;10.13;;;;;;;8.05;58.38;91784.66;5071495;28;20229;-71
2023/03/27 00:49:12;;;;;;;11.07;10.27;;;;;;;8.15;58.64;91781.91;5071356;28;20194;-71
2023/03/27 00:51:41;;;;;;;11.63;10.53;;;;;;;8.02;59.43;91778.19;5070470;28;20221;-71
2023/03/27 00:54:08;;;;;;;10.93;10.20;;;;;;;7.98;60.60;91743.41;5072201;28;20190;-71
2023/03/27 00:56:37;;;;;;;10.37;9.77;;;;;;;7.74;60.72;91747.16;5071997;28;20280;-70
2023/03/27 00:59:09;;;;;;;10.67;9.97;;;;;;;7.84;59.77;91732.19;5071374;28;20177;-70
2023/03/27 01:01:35;;;;;;;11.20;10.10;;;;;;;7.86;59.34;91745.69;5067093;28;20209;-70
2023/03/27 01:04:05;;;;;;;11.00;10.27;;;;;;;8.02;59.07;91752.22;5070657;28;20220;-71
2023/03/27 01:06:31;;;;;;;10.70;10.00;;;;;;;7.87;59.95;91729.06;5070473;28;20225;-71
2023/03/27 01:08:56;;;;;;;10.80;10.20;;;;;;;7.99;60.66;91742.38;5070710;28;20227;-70
2023/03/27 01:11:39;;;;;;;10.67;9.93;;;;;;;7.95;62.30;91743.97;5071586;28;20225;-70
2023/03/27 01:14:20;;;;;;;10.87;9.97;;;;;;;7.97;61.87;91738.50;5071009;28;20213;-71
2023/03/27 01:17:12;;;;;;;9.43;8.93;;;;;;;7.89;62.81;91711.34;5070773;28;20217;-70
2023/03/27 01:19:59;;;;;;;10.10;9.47;;;;;;;7.82;62.61;91728.34;5052588;28;20263;-70
2023/03/27 01:22:40;;;;;;;10.17;9.37;;;;;;;7.67;59.21;91723.38;5086657;28;20213;-70
2023/03/27 01:25:07;;;;;;;10.57;9.87;;;;;;;7.85;61.93;91731.16;5070886;28;20254;-70
2023/03/27 01:28:10;;;;;;;10.47;9.77;;;;;;;7.85;62.13;91715.56;5104581;28;21629;-71
2023/03/27 01:30:48;;;;;;;10.73;10.00;;;;;;;7.79;61.49;91719.31;5068440;28;20247;-71
2023/03/27 01:33:24;;;;;;;10.23;9.53;;;;;;;7.81;61.80;91701.59;5070398;28;20260;-71
2023/03/27 01:36:13;;;;;;;10.30;9.40;;;;;;;7.75;63.01;91694.94;5069808;28;20236;-71
2023/03/27 01:39:00;;;;;;;9.53;8.93;;;;;;;7.72;63.40;91715.53;5071204;28;20260;-71
2023/03/27 01:41:30;;;;;;;10.60;9.80;;;;;;;7.68;63.84;91712.72;5070386;28;20224;-71
2023/03/27 01:44:12;;;;;;;10.07;9.37;;;;;;;7.71;63.11;91717.34;5071347;28;20734;-70
2023/03/27 01:46:40;;;;;;;10.77;10.17;;;;;;;7.65;62.78;91695.09;5070599;28;20233;-71
2023/03/27 01:49:30;;;;;;;10.73;9.90;;;;;;;7.62;63.20;91695.66;5071337;28;20207;-71
2023/03/27 01:52:00;;;;;;;10.27;9.67;;;;;;;7.67;64.39;91695.56;5070473;28;20205;-71
2023/03/27 01:54:33;;;;;;;9.97;9.27;;;;;;;7.62;65.25;91687.88;5070658;28;20193;-70
2023/03/27 01:57:16;;;;;;;10.33;9.53;;;;;;;7.65;64.92;91689.13;5069482;28;20186;-71
2023/03/27 01:59:47;;;;;;;10.37;9.77;;;;;;;7.66;63.49;91686.25;5070326;28;20230;-71
2023/03/27 02:02:19;;;;;;;10.90;10.13;;;;;;;7.57;64.16;91689.75;5101116;28;21045;-70
2023/03/27 02:05:07;;;;;;;10.17;9.57;;;;;;;7.63;63.18;91686.81;5064231;28;20240;-70
2023/03/27 02:07:41;;;;;;;11.13;10.33;;;;;;;7.63;63.09;91694.59;5069973;28;20269;-71
2023/03/27 02:10:13;;;;;;;10.83;10.10;;;;;;;7.59;63.96;91672.88;5069760;28;20244;-71
2023/03/27 02:12:45;;;;;;;10.47;9.67;;;;;;;7.43;66.03;91681.91;5070380;28;20201;-67
2023/03/27 02:15:18;;;;;;;9.93;9.33;;;;;;;7.38;66.01;91676.78;5069849;28;20235;-69
2023/03/27 02:17:51;;;;;;;10.27;9.60;;;;;;;7.45;65.93;91674.63;5070599;28;20204;-67
2023/03/27 02:20:17;;;;;;;9.13;8.73;;;;;;;7.33;66.78;91655.34;5069461;28;20229;-69
2023/03/27 02:22:44;;;;;;;9.00;8.43;;;;;;;7.39;65.39;91673.13;5070647;28;20931;-67
2023/03/27 02:25:27;;;;;;;9.53;9.03;;;;;;;7.30;66.89;91661.84;5069500;28;20391;-68
2023/03/27 02:28:21;;;;;;;10.10;9.33;;;;;;;7.35;64.87;91664.38;5069830;28;20190;-67
2023/03/27 02:30:57;;;;;;;11.03;10.03;;;;;;;7.24;63.35;91654.41;5065154;28;20229;-68
2023/03/27 02:33:38;;;;;;;10.17;9.57;;;;;;;7.15;65.95;91654.28;5069861;28;20193;-67
2023/03/27 02:36:27;;;;;;;10.27;9.53;;;;;;;7.12;66.05;91628.88;5069967;28;20217;-67
2023/03/27 02:39:08;;;;;;;10.33;9.73;;;;;;;6.98;67.11;91630.63;5066912;28;20185;-68
2023/03/27 02:41:39;;;;;;;10.20;9.70;;;;;;;6.95;67.51;91622.63;5065884;28;20213;-66
2023/03/27 02:44:18;;;;;;;10.33;9.63;;;;;;;6.74;66.52;91608.41;5068024;28;20240;-68
2023/03/27 02:46:53;;;;;;;10.33;9.50;;;;;;;6.63;66.44;91612.94;5069128;28;20229;-68
2023/03/27 02:49:32;;;;;;;11.03;10.33;;;;;;;6.70;67.74;91605.59;5066842;28;20209;-66
2023/03/27 02:52:12;;;;;;;9.97;9.37;;;;;;;6.74;67.44;91606.56;5066921;28;20196;-68
2023/03/27 02:54:43;;;;;;;9.43;8.93;;;;;;;6.64;68.39;91590.38;5101708;28;20241;-67
2023/03/27 02:57:19;;;;;;;8.97;8.57;;;;;;;6.36;68.70;91573.88;5068010;28;20189;-67
2023/03/27 02:59:50;;;;;;;9.33;8.83;;;;;;;6.46;68.77;91576.34;5069332;28;20229;-67
2023/03/27 03:02:21;;;;;;;10.37;9.67;;;;;;;6.38;68.79;91577.72;5069418;28;20197;-67
2023/03/27 03:04:55;;;;;;;9.73;9.03;;;;;;;6.29;68.98;91573.44;5069139;28;20568;-68
2023/03/27 03:07:25;;;;;;;9.97;9.07;;;;;;;6.41;67.43;91592.72;5069114;28;20192;-68
2023/03/27 03:09:52;;;;;;;9.93;9.10;;;;;;;6.38;67.12;91571.78;5069284;28;20244;-68
2023/03/27 03:12:18;;;;;;;10.63;9.87;;;;;;;6.16;68.19;91576.72;5069086;28;20202;-67
2023/03/27 03:14:44;;;;;;;10.10;9.30;;;;;;;6.17;66.90;91562.69;5068047;28;20224;-69
2023/03/27 03:17:11;;;;;;;9.57;9.07;;;;;;;6.28;68.20;91556.34;5069421;28;20181;-67
2023/03/27 03:19:37;;;;;;;9.77;9.27;;;;;;;6.24;68.08;91560.56;5068671;28;20277;-67
2023/03/27 03:22:04;;;;;;;10.03;9.33;;;;;;;6.01;69.00;91496.56;5069358;28;20205;-67
2023/03/27 03:24:31;;;;;;;9.80;9.30;;;;;;;6.20;68.76;91544.00;5068813;28;20208;-68
2023/03/27 03:26:56;;;;;;;10.90;10.13;;;;;;;6.25;68.54;91564.69;5069699;28;20253;-68
2023/03/27 03:29:22;;;;;;;9.37;8.63;;;;;;;6.25;66.03;91556.91;5068340;28;20202;-68
2023/03/27 03:31:48;;;;;;;10.97;9.93;;;;;;;6.35;65.92;91547.19;5068867;28;20177;-67
2023/03/27 03:34:17;;;;;;;10.97;9.90;;;;;;;6.30;66.84;91543.91;5068145;28;20626;-69
2023/03/27 03:36:43;;;;;;;10.23;9.53;;;;;;;6.45;66.27;91510.78;5068810;28;20196;-67
2023/03/27 03:39:11;;;;;;;10.47;9.67;;;;;;;6.43;66.47;91538.00;5068610;28;20220;-68
2023/03/27 03:41:36;;;;;;;11.20;10.33;;;;;;;6.44;66.90;91531.78;5068200;28;20245;-68
2023/03/27 03:44:02;;;;;;;11.60;10.73;;;;;;;6.69;63.37;91515.91;5068079;28;21178;-68
2023/03/27 03:46:27;;;;;;;11.83;10.83;;;;;;;6.63;64.05;91517.00;5068084;28;20229;-68
2023/03/27 03:48:53;;;;;;;10.00;9.33;;;;;;;6.62;65.68;91533.63;5069095;28;20189;-68
2023/03/27 03:51:18;;;;;;;10.03;9.53;;;;;;;6.61;65.75;91539.84;5067231;28;20221;-67
2023/03/27 03:53:43;;;;;;;10.43;9.50;;;;;;;6.65;64.60;91527.09;5070645;28;20201;-67
2023/03/27 03:56:09;;;;;;;10.83;10.13;;;;;;;6.58;67.16;91523.03;5068028;28;20232;-67
2023/03/27 03:58:35;;;;;;;12.53;10.80;;;;;;;6.54;67.58;91521.28;5065926;28;20246;-71
2023/03/27 04:01:01;;;;;;;11.50;10.70;;;;;;;6.50;65.20;91518.50;5068273;28;20209;-70
2023/03/27 04:03:30;;;;;;;11.57;10.67;;;;;;;6.45;65.37;91510.00;5068648;28;20198;-70
2023/03/27 04:06:06;;;;;;;10.57;9.83;;;;;;;6.74;64.87;91533.94;5067035;28;20289;-72
2023/03/27 04:08:33;;;;;;;11.47;10.43;;;;;;;6.69;65.90;91533.25;5068580;28;20204;-69
2023/03/27 04:10:58;;;;;;;10.27;9.63;;;;;;;6.56;65.20;91547.69;5068489;28;20209;-71
2023/03/27 04:13:24;;;;;;;11.50;10.47;;;;;;;6.60;64.59;91525.34;5067713;28;20216;-68
2023/03/27 04:15:50;;;;;;;10.27;9.47;;;;;;;6.76;63.67;91529.25;5067245;28;20232;-69
2023/03/27 04:18:18;;;;;;;11.67;10.67;;;;;;;6.59;66.68;91529.00;5068946;28;20228;-70
2023/03/27 04:20:48;;;;;;;11.07;10.27;;;;;;;6.96;62.71;91528.97;5068883;28;20206;-72
2023/03/27 04:23:17;;;;;;;10.60;10.00;;;;;;;7.20;61.86;91534.84;5067317;28;20210;-70
2023/03/27 04:25:47;;;;;;;10.97;10.27;;;;;;;7.17;63.20;91519.03;5069250;28;20225;-71
2023/03/27 04:28:15;;;;;;;10.93;10.03;;;;;;;7.03;64.39;91526.78;5068055;28;20479;-68
2023/03/27 04:30:49;;;;;;;10.73;10.07;;;;;;;7.12;63.28;91527.69;5066561;28;20274;-71
2023/03/27 04:33:17;;;;;;;10.27;9.67;;;;;;;7.09;65.95;91540.44;5068405;28;20213;-71
2023/03/27 04:35:46;;;;;;;9.97;9.23;;;;;;;7.09;64.86;91536.03;5068024;28;20225;-71
2023/03/27 04:38:15;;;;;;;10.87;9.83;;;;;;;7.02;65.67;91512.25;5068402;28;20261;-69
2023/03/27 04:40:44;;;;;;;11.10;10.07;;;;;;;7.13;65.55;91526.63;5068039;28;20245;-70
2023/03/27 04:43:11;;;;;;;10.97;9.93;;;;;;;7.41;63.82;91520.44;5068675;28;20238;-72
2023/03/27 04:45:37;;;;;;;10.43;9.53;;;;;;;7.33;60.74;91526.28;5065655;28;20251;-72
2023/03/27 04:48:03;;;;;;;8.87;8.53;;;;;;;7.70;56.53;91489.84;5067212;28;20273;-72
2023/03/27 04:50:29;;;;;;;8.73;8.13;;;;;;;7.88;57.89;91495.97;5070565;28;20305;-72
2023/03/27 04:52:58;;;;;;;9.27;8.73;;;;;;;8.22;54.43;91498.19;5072211;28;20190;-72
2023/03/27 04:55:25;;;;;;;9.53;9.07;;;;;;;8.30;54.47;91482.69;5072205;28;20232;-72
2023/03/27 04:57:51;;;;;;;8.93;8.10;;;;;;;8.42;54.12;91492.59;5072081;28;20182;-72
2023/03/27 05:00:22;;;;;;;9.30;8.90;;;;;;;8.78;52.19;91488.19;5070403;28;20285;-72
2023/03/27 05:02:51;;;;;;;8.87;8.47;;;;;;;9.23;49.69;91480.06;5070545;28;20213;-72
2023/03/27 05:05:18;;;;;;;8.60;8.20;;;;;;;9.31;50.96;91486.38;5070248;28;20301;-72
2023/03/27 05:07:48;;;;;;;8.30;7.80;;;;;;;9.61;49.42;91483.03;5070767;28;20178;-73
2023/03/27 05:10:16;;;;;;;9.40;8.90;;;;;;;9.50;49.37;91486.94;5070836;28;20221;-72
2023/03/27 05:12:45;;;;;;;9.97;9.37;;;;;;;9.88;47.79;91490.66;5071266;28;20182;-73
2023/03/27 05:15:11;;;;;;;8.87;8.57;;;;;;;9.88;47.91;91475.03;5070730;28;20264;-72
2023/03/27 05:17:41;;;;;;;8.90;8.50;;;;;;;9.98;48.20;91484.41;5072189;28;20185;-72
2023/03/27 05:20:18;;;;;;;9.40;9.00;;;;;;;10.08;48.31;91471.91;5069565;28;20257;-73
2023/03/27 05:22:44;;;;;;;10.03;9.40;;;;;;;10.03;48.16;91450.38;5071475;28;20205;-72
2023/03/27 05:25:10;;;;;;;9.47;8.87;;;;;;;9.84;50.26;91468.13;5071306;28;20284;-72
2023/03/27 05:27:36;;;;;;;9.20;8.67;;;;;;;9.96;48.79;91442.22;5071827;28;20185;-73
2023/03/27 05:30:02;;;;;;;10.10;9.33;;;;;;;9.95;51.76;91454.50;5070830;28;20250;-73
2023/03/27 05:32:27;;;;;;;9.13;8.70;;;;;;;9.94;49.44;91400.06;5071760;28;20223;-72
2023/03/27 05:34:55;;;;;;;9.33;8.83;;;;;;;10.14;48.57;91418.53;5069774;28;20227;-72
2023/03/27 05:37:21;;;;;;;9.90;9.20;;;;;;;10.24;50.32;91426.06;5071612;28;20197;-73
2023/03/27 05:39:47;;;;;;;8.73;8.23;;;;;;;10.31;48.17;91395.09;5070683;28;20269;-73
2023/03/27 05:42:13;;;;;;;9.80;9.30;;;;;;;10.06;48.78;91376.75;5103989;28;20210;-72
2023/03/27 05:44:41;;;;;;;8.57;8.17;;;;;;;10.03;51.77;91398.22;5071025;28;20226;-73
2023/03/27 05:47:08;;;;;;;8.27;7.97;;;;;;;10.40;48.51;91382.81;5070864;28;20221;-72
2023/03/27 05:49:34;;;;;;;8.77;8.33;;;;;;;10.58;48.52;91376.53;5070798;28;20221;-73
2023/03/27 05:52:00;;;;;;;8.10;7.70;;;;;;;10.75;48.77;91347.03;5069609;28;20218;-73
2023/03/27 05:54:25;;;;;;;9.17;8.63;;;;;;;11.00;48.14;91313.00;5071359;28;20174;-72
2023/03/27 05:56:50;;;;;;;9.17;8.57;;;;;;;11.08;48.20;91322.66;5070951;28;20187;-73
2023/03/27 05:59:16;;;;;;;9.00;8.50;;;;;;;11.06;49.10;91311.00;5070700;28;20173;-73
2023/03/27 06:01:41;;;;;;;10.30;9.30;;;;;;;11.07;45.96;91308.09;5070745;28;20185;-72
2023/03/27 06:04:07;;;;;;;9.40;8.93;;;;;;;11.43;45.64;91293.78;5070835;28;20243;-73
2023/03/27 06:06:34;;;;;;;9.67;9.13;;;;;;;11.61;45.51;91300.47;5069710;28;20241;-73
2023/03/27 06:09:00;;;;;;;9.60;9.20;;;;;;;11.08;47.04;91307.00;5070761;28;20186;-73
2023/03/27 06:11:26;;;;;;;9.30;8.87;;;;;;;10.86;48.15;91257.63;5070569;28;20230;-73
2023/03/27 06:13:51;;;;;;;9.80;9.10;;;;;;;11.32;47.05;91256.81;5069895;28;20180;-73
2023/03/27 06:16:19;;;;;;;9.43;8.97;;;;;;;11.76;45.19;91224.13;5102862;28;20306;-72
2023/03/27 06:18:45;;;;;;;9.47;8.97;;;;;;;11.57;48.04;91244.69;5070589;28;20198;-72
2023/03/27 06:21:11;;;;;;;8.87;8.47;;;;;;;12.15;46.69;91255.06;5069459;28;20236;-72
2023/03/27 06:23:37;;;;;;;8.13;7.63;;;;;;;12.37;44.08;91257.34;5070330;28;20240;-73
2023/03/27 06:26:02;;;;;;;9.87;9.27;;;;;;;12.37;44.53;91234.53;5070046;28;20219;-74
2023/03/27 06:28:28;;;;;;;9.60;8.80;;;;;;;12.40;44.04;91249.63;5069041;28;20198;-74
2023/03/27 06:30:56;;;;;;;10.33;8.83;;;;;;;12.44;44.74;91258.34;5069569;28;20258;-73
2023/03/27 06:33:24;;;;;;;9.47;8.90;;;;;;;12.20;44.71;91249.66;5069472;28;20201;-73
2023/03/27 06:35:50;;;;;;;8.10;7.70;;;;;;;12.14;46.16;91275.22;5068806;28;20312;-71
2023/03/27 06:38:17;;;;;;;9.20;8.67;;;;;;;12.39;43.78;91279.47;5069972;28;20207;-73
2023/03/27 06:40:44;;;;;;;9.53;9.03;;;;;;;11.90;46.89;91295.25;5068129;28;20271;-72
2023/03/27 06:43:09;;;;;;;9.87;9.20;;;;;;;11.64;45.68;91289.44;5069685;28;20309;-72
2023/03/27 06:45:40;;;;;;;8.63;8.03;;;;;;;12.31;44.79;91296.00;5069357;28;20228;-72
2023/03/27 06:48:06;;;;;;;10.23;9.43;;;;;;;12.27;45.42;91276.03;5067897;28;20209;-71
2023/03/27 06:50:32;;;;;;;11.77;10.77;;;;;;;11.94;46.17;91281.22;5068078;28;20233;-69
2023/03/27 06:52:58;;;;;;;15.67;12.53;;;;;;;12.03;46.51;91289.03;5069200;28;20192;-70
2023/03/27 06:55:26;;;;;;;11.53;10.43;;;;;;;11.69;47.48;91302.31;5059024;28;20222;-70
2023/03/27 06:57:54;;;;;;;12.37;10.00;;;;;;;12.05;46.59;91311.16;5049663;28;20185;-70
2023/03/27 07:00:23;;;;;;;11.20;10.33;;;;;;;11.85;46.10;91313.72;5058602;28;20228;-72
2023/03/27 07:02:53;;;;;;;12.67;11.57;;;;;;;11.66;47.53;91319.38;5069698;28;20995;-71
2023/03/27 07:05:19;;;;;;;13.67;11.47;;;;;;;12.20;47.65;91315.06;5065748;28;20235;-72
2023/03/27 07:07:45;;;;;;;17.87;13.03;;;;;;;12.10;46.42;91302.34;5068862;28;20271;-71
2023/03/27 07:10:11;;;;;;;13.67;12.30;;;;;;;12.36;45.25;91300.28;5063108;28;20233;-70
2023/03/27 07:12:37;;;;;;;12.77;11.67;;;;;;;12.55;44.11;91308.44;5056005;28;20193;-71
2023/03/27 07:15:05;;;;;;;15.03;13.47;;;;;;;12.25;45.75;91309.63;5051603;28;20229;-72
2023/03/27 07:17:32;;;;;;;14.67;12.73;;;;;;;12.22;45.16;91311.03;5049454;28;20210;-73
2023/03/27 07:19:57;;;;;;;15.57;14.03;;;;;;;11.70;46.19;91309.06;5054572;28;20251;-72
2023/03/27 07:22:22;;;;;;;13.33;11.97;;;;;;;11.76;46.50;91302.56;5069012;28;20202;-72
2023/03/27 07:24:48;;;;;;;13.30;11.93;;;;;;;12.64;46.48;91306.50;5066848;28;20237;-73
2023/03/27 07:27:13;;;;;;;12.23;10.93;;;;;;;13.15;45.04;91315.75;5067555;28;20193;-72
2023/03/27 07:29:39;;;;;;;13.07;11.77;;;;;;;12.38;45.81;91313.81;5068671;28;20255;-71
2023/03/27 07:32:04;;;;;;;11.50;10.50;;;;;;;12.83;44.59;91294.47;5069106;28;20209;-71
2023/03/27 07:34:30;;;;;;;13.80;10.67;;;;;;;13.07;42.72;91314.75;5069189;28;20185;-73
2023/03/27 07:36:58;;;;;;;13.53;12.17;;;;;;;12.90;43.39;91301.81;5069228;28;20181;-74
2023/03/27 07:39:24;;;;;;;14.13;12.73;;;;;;;13.40;43.22;91284.00;5068295;28;20193;-75
2023/03/27 07:41:50;;;;;;;12.80;11.53;;;;;;;13.15;43.29;91310.50;5068113;28;20196;-74
2023/03/27 07:44:17;;;;;;;12.43;11.40;;;;;;;13.52;42.74;91305.00;5068295;28;20219;-72
2023/03/27 07:46:43;;;;;;;12.13;11.20;;;;;;;13.77;42.64;91300.50;5069085;28;20221;-73
2023/03/27 07:49:09;;;;;;;17.23;12.00;;;;;;;13.86;40.89;91309.00;5068836;28;20181;-72
2023/03/27 07:51:36;;;;;;;11.47;10.37;;;;;;;13.74;43.21;91314.28;5067144;28;20209;-72
2023/03/27 07:54:03;;;;;;;14.00;12.90;;;;;;;13.73;43.69;91312.72;5064853;28;21532;-72
2023/03/27 07:56:32;;;;;;;11.20;10.07;;;;;;;13.61;42.34;91313.50;5066251;28;20244;-72
2023/03/27 07:58:57;;;;;;;10.80;10.00;;;;;;;13.87;42.02;91307.91;5066976;28;20184;-73
2023/03/27 08:01:24;;;;;;;11.70;10.70;;;;;;;13.53;43.20;91280.28;5065353;28;20230;-71
2023/03/27 08:03:51;;;;;;;11.97;11.17;;;;;;;13.14;42.98;91267.03;5068294;28;20543;-72
2023/03/27 08:06:16;;;;;;;10.97;10.27;;;;;;;13.19;43.92;91270.22;5066439;28;20240;-70
2023/03/27 08:08:42;;;;;;;11.90;10.70;;;;;;;13.44;43.26;91271.00;5068167;28;20185;-70
2023/03/27 08:11:08;;;;;;;11.30;10.40;;;;;;;13.36;44.57;91269.25;5065181;28;20221;-71
2023/03/27 08:13:33;;;;;;;12.27;11.17;;;;;;;12.92;44.57;91262.94;5066588;28;20182;-71
2023/03/27 08:16:04;;;;;;;11.47;10.10;;;;;;;13.48;44.19;91261.41;5066624;28;20213;-70
2023/03/27 08:18:29;;;;;;;12.43;11.17;;;;;;;13.69;45.48;91277.78;5066596;28;20189;-71
2023/03/27 08:20:56;;;;;;;15.20;10.37;;;;;;;13.56;43.78;91277.00;5066275;28;20271;-71
2023/03/27 08:23:25;;;;;;;11.60;10.50;;;;;;;13.78;43.72;91271.31;5066498;28;20209;-69
2023/03/27 08:25:51;;;;;;;16.50;11.67;;;;;;;13.81;42.24;91257.53;5067909;28;20217;-70
2023/03/27 08:28:16;;;;;;;10.60;9.90;;;;;;;13.92;42.85;91239.47;5071015;28;20189;-69
2023/03/27 08:30:42;;;;;;;11.03;9.93;;;;;;;14.04;43.19;91242.84;5070189;28;20238;-71
2023/03/27 08:33:08;;;;;;;10.70;9.03;;;;;;;14.26;45.31;91236.34;5070478;28;20215;-70
2023/03/27 08:35:34;;;;;;;10.83;9.80;;;;;;;14.22;42.97;91210.00;5070495;28;20258;-70
2023/03/27 08:38:00;;;;;;;12.97;10.07;;;;;;;14.41;44.95;91236.41;5069815;28;20193;-70
2023/03/27 08:40:28;;;;;;;10.77;9.87;;;;;;;14.22;49.11;91252.00;5069939;28;20248;-69
2023/03/27 08:42:59;;;;;;;8.47;7.90;;;;;;;13.85;53.16;91318.72;5069076;28;20205;-69
2023/03/27 08:45:51;;;;;;;8.10;7.53;;;;;;;12.92;62.90;91265.56;5068988;28;20229;-71
2023/03/27 08:48:23;;;;;;;9.27;8.67;;;;;;;11.87;62.34;91260.06;5062697;28;20209;-69
2023/03/27 08:50:55;;;;;;;9.60;8.83;;;;;;;12.02;64.41;91233.31;5069768;28;20240;-69
2023/03/27 08:53:39;;;;;;;9.97;9.53;;;;;;;12.21;56.69;91214.53;5070009;28;20196;-70
2023/03/27 08:56:05;;;;;;;8.27;7.87;;;;;;;12.24;58.61;91179.88;5102436;28;20296;-70
2023/03/27 08:58:33;;;;;;;7.47;7.17;;;;;;;12.58;58.57;91176.91;5067708;28;20198;-71
2023/03/27 09:01:05;;;;;;;9.00;8.60;;;;;;;12.94;51.19;91169.09;5066851;28;20225;-70
2023/03/27 09:03:39;;;;;;;10.13;8.53;;;;;;;13.45;53.18;91162.44;5071315;28;20244;-70
2023/03/27 09:06:28;;;;;;;9.33;8.73;;;;;;;13.57;51.54;91165.78;5069841;28;20228;-70
2023/03/27 09:09:22;;;;;;;9.87;9.37;;;;;;;13.85;50.85;91171.81;5101719;28;20201;-70
2023/03/27 09:11:47;;;;;;;9.27;8.53;;;;;;;13.62;54.79;91154.31;5069610;28;20347;-71
2023/03/27 09:14:50;;;;;;;9.50;8.97;;;;;;;14.03;50.52;91156.59;5070147;28;20197;-71
2023/03/27 09:17:22;;;;;;;9.20;8.77;;;;;;;14.24;44.94;91178.19;5046593;28;20233;-70
2023/03/27 09:20:09;;;;;;;9.10;8.67;;;;;;;13.75;49.04;91189.91;5069021;28;20284;-71
2023/03/27 09:22:43;;;;;;;9.13;8.63;;;;;;;13.30;59.77;91168.34;5069272;28;20212;-70
2023/03/27 09:25:33;;;;;;;8.10;7.73;;;;;;;13.39;58.20;91193.34;5069942;28;20224;-71
2023/03/27 09:28:00;;;;;;;9.70;9.20;;;;;;;13.16;58.97;91197.50;5068502;28;20211;-69
2023/03/27 09:30:32;;;;;;;8.50;8.10;;;;;;;12.82;60.76;91192.66;5069498;28;20283;-69
2023/03/27 09:33:02;;;;;;;10.20;9.67;;;;;;;12.67;58.18;91180.97;5068162;28;20182;-70
2023/03/27 09:35:28;;;;;;;9.03;8.47;;;;;;;12.53;57.84;91200.66;5068217;28;20232;-70
2023/03/27 09:38:16;;;;;;;11.10;10.40;;;;;;;12.52;63.15;91199.16;5067939;28;20208;-71
2023/03/27 09:40:48;;;;;;;8.83;8.33;;;;;;;12.53;62.89;91201.44;5069189;28;20240;-70
2023/03/27 09:43:18;;;;;;;9.63;9.03;;;;;;;12.81;65.09;91186.66;5069348;28;20217;-70
2023/03/27 09:45:48;;;;;;;9.33;8.83;;;;;;;12.63;65.11;91200.25;5069836;28;20229;-70
2023/03/27 09:48:28;;;;;;;8.93;8.43;;;;;;;12.62;61.82;91177.81;5069124;28;20225;-70
2023/03/27 09:50:53;;;;;;;8.87;8.47;;;;;;;12.93;61.61;91184.03;5068411;28;20292;-71
2023/03/27 09:53:24;;;;;;;9.47;8.97;;;;;;;12.92;57.01;91171.28;5069560;28;20204;-71
2023/03/27 09:56:01;;;;;;;8.67;8.27;;;;;;;13.19;56.38;91156.78;5068457;28;20235;-72
2023/03/27 09:58:29;;;;;;;9.50;9.00;;;;;;;13.46;56.19;91164.75;5068741;28;20199;-71
2023/03/27 10:01:15;;;;;;;9.70;9.20;;;;;;;13.34;54.75;91177.84;5067641;28;20263;-72
2023/03/27 10:03:47;;;;;;;9.17;8.57;;;;;;;13.38;53.74;91191.84;5069224;28;20228;-70
2023/03/27 10:06:24;;;;;;;9.03;8.43;;;;;;;13.67;51.60;91203.91;5067945;28;20234;-71
2023/03/27 10:08:49;;;;;;;10.20;9.60;;;;;;;13.90;52.24;91226.69;5068081;28;20189;-73
2023/03/27 10:11:35;;;;;;;8.90;8.50;;;;;;;13.79;54.19;91222.25;5068829;28;20301;-72
2023/03/27 10:14:11;;;;;;;10.70;10.00;;;;;;;13.47;56.07;91202.19;5067518;28;20190;-70
2023/03/27 10:16:39;;;;;;;10.00;9.50;;;;;;;13.06;58.76;91260.81;5069673;28;20229;-70
2023/03/27 10:19:08;;;;;;;9.37;8.93;;;;;;;13.09;62.90;91260.16;5070519;28;20193;-71
2023/03/27 10:21:43;;;;;;;10.03;9.40;;;;;;;12.80;67.38;91247.22;5069625;28;20213;-70
2023/03/27 10:24:30;;;;;;;10.80;10.17;;;;;;;12.08;65.81;91228.66;5068718;28;20205;-71
2023/03/27 10:26:59;;;;;;;9.50;9.00;;;;;;;11.96;64.18;91203.22;5050091;28;20227;-71
2023/03/27 10:29:36;;;;;;;9.47;8.53;;;;;;;12.39;67.07;91195.00;5050692;28;20186;-73
2023/03/27 10:32:04;;;;;;;9.40;8.83;;;;;;;12.67;67.56;91180.97;5069213;28;20185;-71
2023/03/27 10:34:36;;;;;;;9.17;8.47;;;;;;;12.83;68.79;91181.88;5070042;28;20205;-71
2023/03/27 10:37:18;;;;;;;10.60;9.80;;;;;;;12.61;67.49;91171.03;5069249;28;20182;-71
2023/03/27 10:39:44;;;;;;;10.27;9.70;;;;;;;12.38;63.26;91162.81;5069874;28;20256;-70
2023/03/27 10:42:13;;;;;;;9.60;9.10;;;;;;;12.75;66.28;91134.81;5069506;28;20257;-70
2023/03/27 10:44:40;;;;;;;9.13;8.43;;;;;;;12.82;64.01;91116.72;5102536;28;20235;-69
2023/03/27 10:47:17;;;;;;;9.87;9.37;;;;;;;12.92;59.93;91108.41;5070179;28;20284;-69
2023/03/27 10:50:20;;;;;;;9.27;8.50;;;;;;;13.06;57.26;91084.53;5069203;28;20289;-71
2023/03/27 10:53:11;;;;;;;8.97;8.57;;;;;;;13.41;56.86;91104.66;5069355;28;20197;-71
2023/03/27 10:56:01;;;;;;;9.47;8.97;;;;;;;13.44;57.81;91113.72;5068894;28;20233;-69
2023/03/27 10:58:38;;;;;;;9.43;8.70;;;;;;;13.57;54.49;91113.34;5068100;28;20257;-70
2023/03/27 11:01:10;;;;;;;10.10;9.60;;;;;;;14.36;53.31;91102.00;5068950;28;21009;-70
2023/03/27 11:03:52;;;;;;;9.40;8.90;;;;;;;14.42;54.88;91122.41;5069133;28;20277;-69
2023/03/27 11:06:22;;;;;;;9.37;8.70;;;;;;;14.59;51.40;91096.91;5068703;28;20239;-70
2023/03/27 11:09:05;;;;;;;9.73;9.03;;;;;;;14.38;50.18;91116.31;5069143;28;20211;-70
2023/03/27 11:11:38;;;;;;;9.40;8.87;;;;;;;14.77;51.17;91116.50;5069060;28;20234;-70
2023/03/27 11:14:12;;;;;;;9.73;8.97;;;;;;;14.84;51.80;91138.44;5067845;28;20204;-69
2023/03/27 11:16:42;;;;;;;9.50;9.00;;;;;;;15.11;50.63;91149.97;5068048;28;20219;-67
2023/03/27 11:19:10;;;;;;;9.23;8.67;;;;;;;14.78;51.74;91171.31;5068912;28;21864;-67
2023/03/27 11:21:47;;;;;;;9.97;9.13;;;;;;;13.24;58.62;91207.13;5067964;28;20285;-69
2023/03/27 11:24:24;;;;;;;9.60;9.03;;;;;;;12.89;67.86;91211.97;5069217;28;20212;-68
2023/03/27 11:27:34;;;;;;;10.03;9.53;;;;;;;11.72;68.18;91181.44;5068285;28;20691;-68
2023/03/27 11:30:31;;;;;;;9.87;9.37;;;;;;;11.80;71.57;91178.00;5067614;28;20235;-68
2023/03/27 11:33:34;;;;;;;10.57;9.97;;;;;;;11.60;72.36;91182.09;5068536;28;20190;-69
2023/03/27 11:36:28;;;;;;;10.80;10.27;;;;;;;11.54;78.43;91219.19;5068476;28;20228;-69
2023/03/27 11:39:19;;;;;;;11.27;10.37;;;;;;;11.52;79.28;91197.84;5065949;28;20199;-68
2023/03/27 11:41:54;;;;;;;9.43;8.93;;;;;;;11.97;75.91;91167.38;5065901;28;20214;-67
2023/03/27 11:44:21;;;;;;;10.70;10.10;;;;;;;11.70;76.85;91152.22;5066838;28;20240;-68
2023/03/27 11:47:09;;;;;;;11.00;10.23;;;;;;;11.66;81.09;91193.16;5067560;28;20236;-67